Time;durP1;ratioP1;P1;durP2;ratioP2;P2;SDS_P1;SDS_P2;PMS_P1;PMS_P2;Temp;Humidity;BMP_temperature;BMP_pressure;BME280_temperature;BME280_humidity;BME280_pressure;Samples;Min_cycle;Max_cycle;Signal;HPM_P1;HPM_P2
2023/02/10 00:01:34;;;;;;;13.88;6.75;;;;;;;-5.71;62.80;94052.28;6211903;23;20059;-87
2023/02/10 00:04:03;;;;;;;13.73;7.07;;;;;;;-6.07;63.24;93991.97;6211938;23;20008;-88
2023/02/10 00:06:30;;;;;;;15.50;6.78;;;;;;;-6.15;63.02;93984.25;6211790;23;20023;-87
2023/02/10 00:09:00;;;;;;;13.75;6.97;;;;;;;-5.98;63.23;94010.69;6211799;23;20009;-86
2023/02/10 00:14:13;;;;;;;16.10;7.68;;;;;;;-6.19;63.25;93982.97;6211624;23;20451;-88
2023/02/10 00:16:39;;;;;;;16.88;8.20;;;;;;;-6.17;63.95;93986.16;6186914;23;20316;-88
2023/02/10 00:19:05;;;;;;;17.25;8.15;;;;;;;-6.26;63.77;93974.28;6186981;23;20458;-88
2023/02/10 00:21:33;;;;;;;16.73;7.22;;;;;;;-5.83;63.84;94036.44;6212961;23;20004;-88
2023/02/10 00:24:01;;;;;;;16.85;7.88;;;;;;;-5.91;64.02;94026.94;6213341;23;20019;-89
2023/02/10 00:26:27;;;;;;;13.20;6.43;;;;;;;-5.97;63.30;94022.47;6186723;23;20004;-89
2023/02/10 00:28:52;;;;;;;14.75;7.15;;;;;;;-5.80;63.63;94045.53;6211524;23;20017;-88
2023/02/10 00:31:19;;;;;;;18.80;8.02;;;;;;;-6.28;63.68;93973.66;6211737;23;20035;-89
2023/02/10 00:33:47;;;;;;;17.80;7.90;;;;;;;-5.95;64.93;94024.88;6211406;23;20023;-89
2023/02/10 00:36:16;;;;;;;15.50;7.25;;;;;;;-6.11;64.51;94005.94;6185742;23;20016;-88
2023/02/10 00:38:43;;;;;;;20.50;7.43;;;;;;;-6.20;64.50;93988.19;6186864;23;20024;-88
2023/02/10 00:41:17;;;;;;;15.18;7.95;;;;;;;-6.15;64.84;94003.84;6186910;23;20062;-87
2023/02/10 00:43:44;;;;;;;16.83;7.60;;;;;;;-6.07;65.14;94012.34;6211325;23;20047;-90
2023/02/10 00:46:14;;;;;;;15.45;7.88;;;;;;;-6.01;65.41;94035.66;6187340;23;20064;-89
2023/02/10 00:48:43;;;;;;;14.02;7.68;;;;;;;-6.38;65.59;93988.22;6211873;23;20071;-88
2023/02/10 00:51:15;;;;;;;14.48;6.95;;;;;;;-6.42;65.93;93981.78;6186173;23;20004;-89
2023/02/10 00:53:41;;;;;;;16.10;8.43;;;;;;;-6.28;66.46;94007.56;6213677;23;20017;-88
2023/02/10 00:56:08;;;;;;;17.77;7.78;;;;;;;-6.33;67.31;93996.19;6186424;23;20698;-88
2023/02/10 00:58:37;;;;;;;16.05;7.95;;;;;;;-6.41;67.26;93973.22;6186542;23;20681;-88
2023/02/10 01:01:04;;;;;;;14.55;7.45;;;;;;;-6.30;66.93;93988.28;6185386;23;20020;-89
2023/02/10 01:03:30;;;;;;;17.15;7.75;;;;;;;-6.02;66.86;94026.41;6186311;23;20091;-88
2023/02/10 01:05:56;;;;;;;16.90;7.80;;;;;;;-6.18;66.22;93999.84;6210672;23;20363;-89
2023/02/10 01:08:22;;;;;;;17.13;7.93;;;;;;;-6.39;66.04;93971.31;6210878;23;20087;-90
2023/02/10 01:10:48;;;;;;;14.25;7.32;;;;;;;-6.15;66.67;94003.84;6185602;23;20007;-89
2023/02/10 01:13:21;;;;;;;18.95;7.68;;;;;;;-6.15;67.12;94003.84;6210635;23;20428;-88
2023/02/10 01:15:49;;;;;;;15.68;7.75;;;;;;;-6.17;67.03;94004.00;6210730;23;20032;-89
2023/02/10 01:18:17;;;;;;;17.88;7.97;;;;;;;-6.27;66.99;93985.44;6185791;23;20001;-88
2023/02/10 01:20:43;;;;;;;18.98;8.25;;;;;;;-6.07;67.38;94022.56;6185548;23;20020;-88
2023/02/10 01:23:12;;;;;;;17.60;7.68;;;;;;;-6.22;67.25;94003.63;6210682;23;20015;-90
2023/02/10 01:25:38;;;;;;;15.23;7.45;;;;;;;-6.34;66.84;93989.53;6211191;23;20040;-88
2023/02/10 01:28:16;;;;;;;;;;;;;;;;;;;;;
2023/02/10 01:30:44;;;;;;;16.17;8.32;;;;;;;-6.57;66.45;93961.13;6210518;23;20023;-88
2023/02/10 01:33:10;;;;;;;16.30;6.68;;;;;;;-6.51;66.71;93968.19;6211648;23;20013;-91
2023/02/10 01:35:37;;;;;;;15.30;7.38;;;;;;;-6.14;67.00;94028.41;6212638;23;20024;-89
2023/02/10 01:38:05;;;;;;;15.57;7.75;;;;;;;-6.08;67.20;94026.06;6162941;23;20005;-87
2023/02/10 01:40:31;;;;;;;15.75;7.65;;;;;;;-6.26;67.00;93997.22;6212332;23;20028;-88
2023/02/10 01:42:57;;;;;;;17.58;7.70;;;;;;;-6.16;66.62;94004.81;6162945;23;20092;-89
2023/02/10 01:45:31;;;;;;;16.30;8.40;;;;;;;-6.50;67.11;93960.41;6187678;23;20376;-88
2023/02/10 01:48:00;;;;;;;14.90;7.82;;;;;;;-6.45;67.30;93956.63;6213026;23;20023;-89
2023/02/10 01:50:30;;;;;;;19.17;7.90;;;;;;;-6.56;67.50;93955.88;6187028;23;20012;-88
2023/02/10 01:52:58;;;;;;;16.50;7.93;;;;;;;-6.56;67.61;93950.78;6212920;23;20062;-89
2023/02/10 01:55:29;;;;;;;18.40;7.88;;;;;;;-6.50;68.13;93955.31;6187276;23;20009;-88
2023/02/10 01:57:56;;;;;;;17.52;8.43;;;;;;;-6.31;68.50;93977.25;6212570;23;20048;-89
2023/02/10 02:00:23;;;;;;;15.60;8.38;;;;;;;-6.57;68.53;93938.22;6187781;23;20005;-88
2023/02/10 02:02:52;;;;;;;17.95;8.45;;;;;;;-6.34;68.68;93972.47;6212183;23;20031;-88
2023/02/10 02:05:33;;;;;;;19.05;8.32;;;;;;;-6.51;69.03;93935.88;6212569;23;20455;-88
2023/02/10 02:08:10;;;;;;;15.43;7.32;;;;;;;-6.38;68.86;93958.41;6187705;23;20035;-88
2023/02/10 02:11:19;;;;;;;19.30;8.73;;;;;;;-6.44;68.82;93945.47;6187863;23;20043;-88
2023/02/10 02:14:20;;;;;;;16.42;8.35;;;;;;;-6.20;69.18;93981.34;6212232;23;20066;-88
2023/02/10 02:17:24;;;;;;;17.13;8.20;;;;;;;-6.34;69.64;93956.38;6150791;23;20435;-86
2023/02/10 02:23:16;;;;;;;18.65;8.48;;;;;;;-6.21;69.89;93977.19;6212819;23;20016;-88
2023/02/10 02:26:08;;;;;;;14.35;7.68;;;;;;;-6.22;70.22;93973.03;6211821;23;20012;-89
2023/02/10 02:29:00;;;;;;;17.27;7.53;;;;;;;-6.25;70.14;93967.44;6212023;23;20100;-87
2023/02/10 02:31:48;;;;;;;16.98;7.57;;;;;;;-6.28;70.59;93968.56;6212146;23;20009;-86
2023/02/10 02:34:44;;;;;;;17.90;8.82;;;;;;;-6.28;70.43;93973.66;6213348;23;20023;-88
2023/02/10 02:37:24;;;;;;;16.83;8.05;;;;;;;-6.50;70.53;93927.28;6211831;23;20431;-88
2023/02/10 02:39:51;;;;;;;16.73;8.55;;;;;;;-6.33;70.45;93950.34;6211846;23;20012;-86
2023/02/10 02:42:20;;;;;;;19.55;8.98;;;;;;;-6.29;70.48;93959.28;6212082;23;20451;-86
2023/02/10 02:44:53;;;;;;;25.05;9.02;;;;;;;-6.28;70.22;93960.91;6211794;23;20028;-87
2023/02/10 02:47:49;;;;;;;15.13;8.05;;;;;;;-6.38;69.92;93942.34;6211796;23;20062;-87
2023/02/10 02:50:19;;;;;;;16.15;7.68;;;;;;;-6.30;69.89;93955.16;6212057;23;20073;-88
2023/02/10 02:52:59;;;;;;;15.82;7.88;;;;;;;-6.45;70.02;93936.22;6212128;23;20099;-87
2023/02/10 02:56:10;;;;;;;15.98;8.30;;;;;;;-6.39;70.00;93945.84;6212035;23;20017;-88
2023/02/10 02:58:57;;;;;;;16.15;7.78;;;;;;;-6.32;69.41;93957.84;6150352;23;20093;-88
2023/02/10 03:01:33;;;;;;;16.15;8.15;;;;;;;-6.37;69.36;93946.47;6212114;23;20095;-88
2023/02/10 03:04:00;;;;;;;19.00;8.05;;;;;;;-6.46;69.71;93934.63;6211673;23;20097;-88
2023/02/10 03:06:26;;;;;;;17.05;7.78;;;;;;;-6.35;69.29;93947.13;6211563;23;20087;-89
2023/02/10 03:08:53;;;;;;;17.20;8.20;;;;;;;-6.32;69.18;93941.75;6211880;23;20473;-89
2023/02/10 03:11:19;;;;;;;16.50;9.30;;;;;;;-6.32;68.99;93945.09;6211757;23;20012;-89
2023/02/10 03:13:44;;;;;;;16.05;7.63;;;;;;;-6.33;69.21;93940.13;6213885;23;20024;-88
2023/02/10 03:16:10;;;;;;;17.88;9.10;;;;;;;-6.47;68.78;93917.75;6211394;23;20307;-89
2023/02/10 03:18:36;;;;;;;15.52;7.97;;;;;;;-6.30;68.89;93925.34;6186867;23;20067;-88
2023/02/10 03:21:02;;;;;;;15.90;7.95;;;;;;;-6.28;68.87;93917.56;6186522;23;20454;-88
2023/02/10 03:23:27;;;;;;;15.35;7.00;;;;;;;-6.33;68.60;93912.91;6186774;23;20484;-88
2023/02/10 03:25:53;;;;;;;17.27;8.05;;;;;;;-6.36;68.63;93909.84;6213104;23;20012;-89
2023/02/10 03:28:18;;;;;;;18.52;7.38;;;;;;;-6.37;68.38;93908.25;6186229;23;20103;-89
2023/02/10 03:30:50;;;;;;;14.88;6.55;;;;;;;-6.36;67.91;93904.75;6161930;23;20017;-88
2023/02/10 03:33:16;;;;;;;14.30;6.93;;;;;;;-6.38;68.19;93899.81;6187879;23;20024;-89
2023/02/10 03:35:44;;;;;;;14.85;7.32;;;;;;;-6.43;68.26;93893.56;6186491;23;20004;-90
2023/02/10 03:38:09;;;;;;;14.70;7.43;;;;;;;-6.34;68.30;93907.97;6185734;23;20103;-89
2023/02/10 03:40:36;;;;;;;15.95;7.35;;;;;;;-6.44;68.89;93902.16;6211721;23;20055;-88
2023/02/10 03:43:02;;;;;;;15.95;7.28;;;;;;;-6.51;69.24;93900.22;6186738;23;20032;-88
2023/02/10 03:45:27;;;;;;;16.77;7.45;;;;;;;-6.42;68.93;93906.13;6161863;23;20012;-89
2023/02/10 03:47:53;;;;;;;18.63;8.93;;;;;;;-6.40;68.28;93900.91;6211096;23;20044;-88
2023/02/10 03:50:19;;;;;;;14.20;7.47;;;;;;;-6.37;68.35;93903.16;6186542;23;20017;-88
2023/02/10 03:52:44;;;;;;;15.10;7.78;;;;;;;-6.40;68.69;93898.34;6211293;23;20051;-88
2023/02/10 03:55:14;;;;;;;16.25;6.60;;;;;;;-6.40;67.84;93903.44;6137285;23;20032;-88
2023/02/10 03:57:40;;;;;;;12.93;6.38;;;;;;;-6.35;67.27;93906.34;6187586;23;20091;-89
2023/02/10 04:00:07;;;;;;;14.57;7.18;;;;;;;-6.34;67.16;93918.16;6211763;23;20264;-88
2023/02/10 04:02:38;;;;;;;16.77;7.82;;;;;;;-6.43;66.66;93898.66;6212885;23;20040;-89
2023/02/10 04:05:04;;;;;;;14.63;6.55;;;;;;;-6.45;66.91;93891.16;6211412;23;20385;-89
2023/02/10 04:07:29;;;;;;;16.65;6.78;;;;;;;-6.42;66.97;93902.81;6136945;23;20009;-89
2023/02/10 04:09:55;;;;;;;11.57;6.00;;;;;;;-6.38;66.55;93910.00;6210586;23;20017;-88
2023/02/10 04:12:21;;;;;;;15.63;7.57;;;;;;;-6.41;65.78;93895.00;6186649;23;20016;-89
2023/02/10 04:14:46;;;;;;;15.13;6.25;;;;;;;-6.37;65.69;93900.59;6211381;23;20510;-88
2023/02/10 04:17:12;;;;;;;13.63;6.25;;;;;;;-6.34;65.83;93908.75;6161465;23;20092;-89
2023/02/10 04:19:37;;;;;;;15.23;6.18;;;;;;;-6.45;64.99;93888.63;6210929;23;20023;-88
2023/02/10 04:22:03;;;;;;;16.23;7.47;;;;;;;-6.37;65.41;93903.97;6211024;23;20062;-89
2023/02/10 04:24:29;;;;;;;16.15;6.75;;;;;;;-6.49;65.44;93885.53;6161550;23;20028;-88
2023/02/10 04:26:54;;;;;;;14.55;6.55;;;;;;;-6.42;64.01;93893.41;6186116;23;20323;-90
2023/02/10 04:29:21;;;;;;;14.10;6.25;;;;;;;-6.38;64.45;93893.91;6210733;23;20081;-88
2023/02/10 04:31:46;;;;;;;11.15;5.20;;;;;;;-6.45;63.53;93882.72;6186192;23;20036;-88
2023/02/10 04:34:12;;;;;;;14.05;6.05;;;;;;;-6.43;63.16;93884.16;6186010;23;20491;-89
2023/02/10 04:36:38;;;;;;;13.85;6.20;;;;;;;-6.31;62.92;93894.91;6211356;23;20008;-88
2023/02/10 04:39:03;;;;;;;16.23;6.93;;;;;;;-6.33;62.71;93889.97;6211298;23;20110;-88
2023/02/10 04:41:29;;;;;;;12.52;6.05;;;;;;;-6.27;62.66;93898.78;6160206;23;20015;-89
2023/02/10 04:43:54;;;;;;;11.38;5.13;;;;;;;-6.39;61.83;93880.38;6166920;23;20012;-87
2023/02/10 04:46:20;;;;;;;14.27;5.90;;;;;;;-6.26;62.42;93900.34;6160515;23;20031;-87
2023/02/10 04:48:46;;;;;;;9.75;5.43;;;;;;;-6.28;62.49;93897.19;6210594;23;20339;-88
2023/02/10 04:51:12;;;;;;;14.50;7.20;;;;;;;-6.51;63.05;93862.00;6185256;23;20005;-88
2023/02/10 04:53:39;;;;;;;11.43;6.43;;;;;;;-6.34;63.45;93885.81;6210944;23;20018;-88
2023/02/10 04:56:06;;;;;;;11.75;6.47;;;;;;;-6.28;63.57;93897.19;6185824;23;20040;-87
2023/02/10 04:58:32;;;;;;;10.48;5.97;;;;;;;-6.26;63.35;93902.91;6185444;23;20395;-88
2023/02/10 05:00:58;;;;;;;12.13;6.60;;;;;;;-6.32;63.28;93904.31;6185102;23;20046;-88
2023/02/10 05:03:24;;;;;;;18.73;7.25;;;;;;;-6.35;63.98;93893.59;6212372;23;20395;-88
2023/02/10 05:05:52;;;;;;;16.73;7.40;;;;;;;-6.25;64.26;93907.06;6209983;23;20001;-87
2023/02/10 05:08:23;;;;;;;12.10;6.63;;;;;;;-6.44;63.85;93880.00;6185964;23;20355;-88
2023/02/10 05:10:50;;;;;;;13.60;6.97;;;;;;;-6.25;64.04;93912.16;6210971;23;20399;-88
2023/02/10 05:13:16;;;;;;;13.93;6.47;;;;;;;-6.36;64.38;93892.03;6210398;23;20080;-88
2023/02/10 05:15:42;;;;;;;15.18;7.07;;;;;;;-6.33;64.58;93909.56;6212811;23;20022;-90
2023/02/10 05:18:07;;;;;;;12.25;6.75;;;;;;;-6.34;64.61;93913.06;6211500;23;20012;-88
2023/02/10 05:20:33;;;;;;;13.32;6.10;;;;;;;-6.31;64.02;93917.84;6206091;23;20020;-91
2023/02/10 05:22:58;;;;;;;17.05;6.05;;;;;;;-6.34;63.01;93910.50;6212040;23;20510;-91
2023/02/10 05:25:24;;;;;;;12.57;6.28;;;;;;;-6.31;62.21;93928.84;6236495;23;20040;-91
2023/02/10 05:27:50;;;;;;;11.98;6.47;;;;;;;-6.35;62.37;93912.28;6211287;23;20021;-89
2023/02/10 05:30:15;;;;;;;10.45;5.82;;;;;;;-6.36;61.88;93910.66;6210643;23;20037;-88
2023/02/10 05:32:42;;;;;;;13.50;7.28;;;;;;;-6.37;62.26;93910.78;6186889;23;20013;-87
2023/02/10 05:35:08;;;;;;;15.10;5.63;;;;;;;-6.26;61.12;93925.84;6216022;23;20444;-88
2023/02/10 05:37:34;;;;;;;14.43;6.20;;;;;;;-6.28;61.02;93920.91;6164973;23;20035;-87
2023/02/10 05:40:00;;;;;;;11.60;5.93;;;;;;;-6.26;60.82;93920.75;6211285;23;20434;-91
2023/02/10 05:42:25;;;;;;;11.30;5.60;;;;;;;-6.35;61.05;93907.16;6161247;23;20632;-88
2023/02/10 05:44:51;;;;;;;10.75;6.13;;;;;;;-6.34;60.77;93913.84;6185806;23;20013;-87
2023/02/10 05:47:16;;;;;;;12.93;5.63;;;;;;;-6.21;60.28;93928.78;6161174;23;20009;-88
2023/02/10 05:49:42;;;;;;;9.50;5.68;;;;;;;-6.26;60.30;93925.84;6211318;23;20316;-88
2023/02/10 05:52:07;;;;;;;12.38;5.45;;;;;;;-6.29;60.71;93926.94;6210661;23;20005;-88
2023/02/10 05:54:34;;;;;;;12.30;5.88;;;;;;;-6.29;60.27;93941.44;6208868;23;20048;-88
2023/02/10 05:57:00;;;;;;;10.30;5.45;;;;;;;-6.47;61.14;93918.53;6160315;23;20020;-87
2023/02/10 05:59:26;;;;;;;13.07;6.00;;;;;;;-6.42;60.88;93925.72;6209278;23;20283;-88
2023/02/10 06:01:52;;;;;;;12.07;6.00;;;;;;;-6.30;60.57;93944.97;6160713;23;20019;-86
2023/02/10 06:04:17;;;;;;;15.35;6.35;;;;;;;-6.29;61.19;93949.09;6209491;23;20017;-89
2023/02/10 06:06:43;;;;;;;12.07;6.53;;;;;;;-6.29;61.49;93954.19;6212588;23;20339;-90
2023/02/10 06:09:08;;;;;;;13.57;6.28;;;;;;;-6.33;61.32;93955.44;6185968;23;20020;-89
2023/02/10 06:11:34;;;;;;;12.82;6.10;;;;;;;-6.31;61.08;93954.31;6209865;23;20007;-91
2023/02/10 06:14:00;;;;;;;12.65;6.32;;;;;;;-6.33;61.25;93948.56;6183829;23;20021;-90
2023/02/10 06:16:25;;;;;;;11.23;5.93;;;;;;;-6.29;60.96;93957.53;6206799;23;20138;-90
2023/02/10 06:18:51;;;;;;;13.50;6.18;;;;;;;-6.28;61.17;93955.81;6183824;23;20008;-90
2023/02/10 06:21:17;;;;;;;15.73;5.95;;;;;;;-6.31;60.84;93961.97;6186800;23;20013;-89
2023/02/10 06:23:43;;;;;;;10.25;5.50;;;;;;;-6.32;60.47;93962.13;6187076;23;20768;-90
2023/02/10 06:26:09;;;;;;;11.95;5.57;;;;;;;-6.27;60.29;93965.03;6210870;23;20019;-89
2023/02/10 06:28:35;;;;;;;10.88;5.85;;;;;;;-6.33;60.22;93963.06;6184468;23;20767;-91
2023/02/10 06:31:00;;;;;;;14.15;6.05;;;;;;;-6.29;60.19;93962.63;6159909;23;20044;-91
2023/02/10 06:33:28;;;;;;;11.38;6.15;;;;;;;-6.46;60.35;93942.25;6210325;23;20097;-90
2023/02/10 06:35:56;;;;;;;11.18;5.93;;;;;;;-6.28;60.91;93971.91;6161144;23;20017;-90
2023/02/10 06:38:24;;;;;;;13.43;6.38;;;;;;;-6.38;61.26;93953.31;6186851;23;20016;-89
2023/02/10 06:40:52;;;;;;;13.23;6.18;;;;;;;-6.66;61.04;93904.22;6210673;23;20446;-90
2023/02/10 06:43:18;;;;;;;13.48;6.93;;;;;;;-6.31;60.79;93954.31;6212082;23;20008;-90
2023/02/10 06:45:43;;;;;;;14.65;7.07;;;;;;;-6.46;61.50;93917.59;6162718;23;20416;-89
2023/02/10 06:48:09;;;;;;;13.93;7.15;;;;;;;-6.43;61.83;93913.94;6187030;23;20008;-89
2023/02/10 06:50:40;;;;;;;15.95;7.57;;;;;;;-5.74;61.18;93925.84;6186749;23;20024;-89
2023/02/10 06:53:05;;;;;;;15.45;6.93;;;;;;;-4.68;58.94;93947.59;6212139;23;20023;-89
2023/02/10 06:55:34;;;;;;;14.10;7.05;;;;;;;-3.60;56.01;93978.13;6186757;23;20013;-88
2023/02/10 06:58:00;;;;;;;16.50;7.90;;;;;;;-2.81;55.30;93968.72;6212002;23;20036;-90
2023/02/10 07:00:29;;;;;;;13.70;6.45;;;;;;;-2.04;52.79;93983.31;6211282;23;20488;-90
2023/02/10 07:02:57;;;;;;;17.33;6.53;;;;;;;-1.30;48.78;93964.66;6211716;23;20300;-90
2023/02/10 07:05:22;;;;;;;12.27;6.93;;;;;;;-0.26;47.16;93983.28;6211996;23;20005;-90
2023/02/10 07:07:50;;;;;;;17.25;7.03;;;;;;;0.28;43.74;93970.91;6213713;23;20412;-89
2023/02/10 07:10:17;;;;;;;13.07;6.47;;;;;;;0.72;42.62;93937.13;6186483;23;20008;-89
2023/02/10 07:12:46;;;;;;;12.20;6.53;;;;;;;1.62;42.04;93934.47;6212078;23;20319;-89
2023/02/10 07:15:12;;;;;;;13.05;6.90;;;;;;;2.28;40.93;93938.91;6187395;23;20012;-89
2023/02/10 07:17:38;;;;;;;11.85;6.38;;;;;;;3.28;38.24;93972.34;6211744;23;20016;-90
2023/02/10 07:20:05;;;;;;;12.02;6.60;;;;;;;3.87;35.89;93992.03;6186685;23;20075;-90
2023/02/10 07:22:32;;;;;;;11.75;6.40;;;;;;;4.18;35.23;93974.88;6211553;23;20015;-88
2023/02/10 07:24:58;;;;;;;11.63;6.72;;;;;;;4.97;34.78;93989.00;6212119;23;20007;-88
2023/02/10 07:27:24;;;;;;;12.82;7.22;;;;;;;5.48;33.44;93997.47;6161848;23;20012;-87
2023/02/10 07:29:51;;;;;;;13.95;7.68;;;;;;;5.79;33.08;93970.53;6213640;23;20004;-88
2023/02/10 07:32:17;;;;;;;14.07;8.18;;;;;;;6.69;32.35;93961.03;6162039;23;20435;-89
2023/02/10 07:34:43;;;;;;;12.27;7.75;;;;;;;6.98;30.48;93963.75;6186821;23;20027;-88
2023/02/10 07:37:09;;;;;;;14.77;8.80;;;;;;;7.30;29.92;93946.72;6186854;23;20100;-89
2023/02/10 07:39:35;;;;;;;15.35;9.00;;;;;;;7.63;31.74;93976.56;6161838;23;20039;-88
2023/02/10 07:42:00;;;;;;;15.98;9.50;;;;;;;7.85;31.10;93968.09;6161854;23;20013;-88
2023/02/10 07:44:39;;;;;;;15.10;9.40;;;;;;;8.12;32.02;93989.19;6163837;23;20036;-88
2023/02/10 07:47:05;;;;;;;14.43;9.75;;;;;;;9.01;30.39;93979.97;6161956;23;20462;-89
2023/02/10 07:49:31;;;;;;;15.63;10.07;;;;;;;9.32;30.32;93999.44;6161670;23;20000;-88
2023/02/10 07:51:57;;;;;;;15.02;10.00;;;;;;;9.12;30.38;93961.56;6186874;23;20426;-87
2023/02/10 07:54:22;;;;;;;15.32;9.93;;;;;;;9.53;29.93;93996.06;6186133;23;20000;-88
2023/02/10 07:56:48;;;;;;;19.65;10.32;;;;;;;11.08;27.69;94011.47;6186646;23;20001;-88
2023/02/10 07:59:13;;;;;;;18.63;10.27;;;;;;;12.03;25.08;93993.13;6212805;23;20000;-87
2023/02/10 08:01:42;;;;;;;14.00;9.98;;;;;;;11.45;26.26;94011.47;6186035;23;20435;-87
2023/02/10 08:04:12;;;;;;;14.45;9.43;;;;;;;11.60;25.27;93993.19;6161533;23;20358;-88
2023/02/10 08:06:38;;;;;;;14.60;9.48;;;;;;;11.37;26.12;93997.03;6161615;23;20017;-88
2023/02/10 08:09:04;;;;;;;14.35;9.63;;;;;;;10.94;26.81;94016.38;6161552;23;20005;-89
2023/02/10 08:11:30;;;;;;;17.92;9.90;;;;;;;10.41;26.71;94018.81;6212732;23;20012;-88
2023/02/10 08:13:56;;;;;;;14.73;9.63;;;;;;;10.91;26.74;94012.41;6136999;23;20079;-88
2023/02/10 08:16:21;;;;;;;15.48;9.77;;;;;;;11.77;26.08;94007.94;6186502;23;20322;-88
2023/02/10 08:18:47;;;;;;;15.75;10.70;;;;;;;12.15;24.71;94012.06;6186407;23;20011;-88
2023/02/10 08:21:12;;;;;;;15.73;9.93;;;;;;;11.94;25.37;94010.44;6186127;23;20024;-87
2023/02/10 08:23:38;;;;;;;17.30;10.63;;;;;;;12.11;24.99;94018.88;6161627;23;20076;-87
2023/02/10 08:26:10;;;;;;;16.20;10.15;;;;;;;11.02;26.86;94027.19;6161582;23;20008;-87
2023/02/10 08:28:36;;;;;;;15.43;8.80;;;;;;;10.87;27.01;94021.03;6195303;23;20005;-87
2023/02/10 08:31:04;;;;;;;17.65;10.35;;;;;;;9.06;30.37;94019.22;6185802;23;20123;-88
2023/02/10 08:33:33;;;;;;;16.25;9.98;;;;;;;9.72;29.78;94030.56;6210985;23;20020;-87
2023/02/10 08:36:06;;;;;;;22.42;10.65;;;;;;;8.58;30.87;94030.97;6186702;23;20058;-87
2023/02/10 08:38:32;;;;;;;17.85;10.85;;;;;;;7.07;33.26;94041.31;6211191;23;20470;-85
2023/02/10 08:40:58;;;;;;;19.52;10.18;;;;;;;7.17;34.57;94026.94;6185546;23;20008;-85
2023/02/10 08:43:24;;;;;;;16.85;8.27;;;;;;;7.51;31.97;94031.31;6185094;23;20016;-85
2023/02/10 08:45:50;;;;;;;19.50;10.30;;;;;;;6.81;33.80;94037.31;6186267;23;20016;-85
2023/02/10 08:48:16;;;;;;;19.67;9.45;;;;;;;7.05;33.04;94039.94;6211229;23;20334;-85
2023/02/10 08:50:41;;;;;;;17.40;10.00;;;;;;;8.24;32.05;94044.72;6210798;23;20003;-87
2023/02/10 08:53:07;;;;;;;19.02;9.07;;;;;;;8.60;31.19;94042.78;6161215;23;20032;-87
2023/02/10 08:55:32;;;;;;;18.15;10.40;;;;;;;8.12;30.81;94042.16;6210499;23;20001;-85
2023/02/10 08:57:58;;;;;;;19.95;9.80;;;;;;;7.14;32.80;94033.38;6185876;23;20028;-87
2023/02/10 09:00:24;;;;;;;20.08;10.73;;;;;;;7.28;32.16;94058.19;6185762;23;20118;-87
2023/02/10 09:02:50;;;;;;;22.30;10.10;;;;;;;6.46;33.12;94066.66;6210185;23;20331;-87
2023/02/10 09:05:16;;;;;;;18.35;10.15;;;;;;;6.88;33.66;94058.81;6210421;23;20062;-88
2023/02/10 09:07:42;;;;;;;15.20;8.00;;;;;;;6.96;33.28;94064.72;6186177;23;20013;-87
2023/02/10 09:10:10;;;;;;;17.15;8.68;;;;;;;7.38;32.79;94062.03;6186007;23;20474;-86
2023/02/10 09:12:37;;;;;;;16.55;8.68;;;;;;;6.84;33.16;94046.47;6210729;23;20332;-88
2023/02/10 09:15:04;;;;;;;15.65;8.90;;;;;;;7.25;33.14;94048.22;6185687;23;20017;-86
2023/02/10 09:17:30;;;;;;;16.90;9.30;;;;;;;7.37;32.42;94065.66;6212676;23;20019;-87
2023/02/10 09:19:55;;;;;;;17.20;9.75;;;;;;;7.62;31.20;94068.00;6185644;23;20040;-88
2023/02/10 09:22:21;;;;;;;15.95;8.70;;;;;;;8.36;30.74;94072.59;6185705;23;20107;-87
2023/02/10 09:24:47;;;;;;;19.55;9.05;;;;;;;7.96;31.43;94055.13;6210568;23;20502;-87
2023/02/10 09:27:15;;;;;;;19.65;10.23;;;;;;;6.93;32.87;94054.75;6185886;23;20021;-87
2023/02/10 09:29:40;;;;;;;14.45;8.18;;;;;;;6.95;33.56;94073.56;6184650;23;20016;-87
2023/02/10 09:32:06;;;;;;;13.82;7.20;;;;;;;6.99;33.99;94077.31;6186047;23;20580;-87
2023/02/10 09:34:31;;;;;;;15.85;9.57;;;;;;;6.00;35.41;94072.47;6212413;23;20065;-87
2023/02/10 09:37:00;;;;;;;20.88;9.95;;;;;;;6.21;34.45;94081.59;6210833;23;20016;-88
2023/02/10 09:39:27;;;;;;;15.75;9.07;;;;;;;6.10;35.77;94074.53;6186268;23;20112;-88
2023/02/10 09:42:22;;;;;;;17.65;8.90;;;;;;;6.22;34.43;94080.59;6210718;23;20074;-88
2023/02/10 09:44:55;;;;;;;17.08;9.85;;;;;;;5.30;36.42;94070.97;6207487;23;20013;-87
2023/02/10 09:47:21;;;;;;;17.98;8.85;;;;;;;5.95;36.73;94074.94;6211100;23;20075;-88
2023/02/10 09:49:53;;;;;;;17.85;9.35;;;;;;;6.94;34.11;94064.94;6212181;23;20407;-87
2023/02/10 09:52:19;;;;;;;;;;;;;;;7.51;33.50;94073.00;6210837;23;20024;-88
2023/02/10 09:54:46;;;;;;;15.95;8.93;;;;;;;6.73;33.71;94066.25;6212023;23;19978;-88
2023/02/10 09:57:19;;;;;;;15.45;7.22;;;;;;;7.70;32.59;94084.09;6214119;23;20525;-89
2023/02/10 09:59:49;;;;;;;14.48;7.35;;;;;;;6.88;32.64;94084.84;6212633;23;20004;-88
2023/02/10 10:02:24;;;;;;;15.63;8.30;;;;;;;6.23;34.68;94093.34;6211755;23;20012;-88
2023/02/10 10:04:52;;;;;;;13.52;7.35;;;;;;;5.98;33.95;94093.47;6212650;23;20304;-87
2023/02/10 10:07:35;;;;;;;15.93;7.85;;;;;;;6.28;34.19;94100.50;6212591;23;20322;-89
2023/02/10 10:10:05;;;;;;;5.35;3.33;;;;;;;5.55;35.02;94106.50;6212689;23;20012;-87
2023/02/10 10:12:31;;;;;;;19.67;8.82;;;;;;;5.69;35.21;94107.16;6212405;23;20506;-88
2023/02/10 10:14:57;;;;;;;14.50;7.57;;;;;;;5.73;35.71;94103.13;6187290;23;20035;-89
2023/02/10 10:17:53;;;;;;;15.35;9.27;;;;;;;5.69;36.07;94112.34;6187419;23;20390;-88
2023/02/10 10:20:35;;;;;;;14.43;6.85;;;;;;;5.72;35.00;94106.72;6212529;23;20011;-88
2023/02/10 10:23:13;;;;;;;16.37;8.50;;;;;;;6.07;34.93;94114.75;6212489;23;20014;-88
2023/02/10 10:26:12;;;;;;;20.67;9.40;;;;;;;5.89;35.72;94107.75;6212759;23;20254;-89
2023/02/10 10:29:02;;;;;;;14.95;8.63;;;;;;;6.00;35.90;94094.03;6211987;23;20208;-87
2023/02/10 10:31:33;;;;;;;15.30;8.75;;;;;;;5.68;35.82;94115.97;6211855;23;20469;-88
2023/02/10 10:34:11;;;;;;;10.95;6.00;;;;;;;5.51;35.50;94113.91;6214248;23;20013;-87
2023/02/10 10:36:49;;;;;;;14.23;7.97;;;;;;;5.98;35.35;94106.47;6212444;23;20012;-88
2023/02/10 10:39:36;;;;;;;21.75;10.00;;;;;;;6.17;35.48;94119.44;6213660;23;20411;-88
2023/02/10 10:42:27;;;;;;;10.38;5.10;;;;;;;6.03;34.85;94122.22;6211901;23;20091;-89
2023/02/10 10:45:11;;;;;;;21.42;9.25;;;;;;;5.47;35.84;94104.19;6212587;23;20009;-89
2023/02/10 10:47:44;;;;;;;10.00;5.43;;;;;;;5.38;35.92;94116.63;6212795;23;20008;-88
2023/02/10 10:50:20;;;;;;;16.20;8.77;;;;;;;5.26;36.86;94097.59;6213539;23;20067;-88
2023/02/10 10:52:51;;;;;;;14.15;7.88;;;;;;;5.14;37.48;94105.28;6187281;23;20019;-88
2023/02/10 10:55:39;;;;;;;15.48;8.55;;;;;;;5.10;37.92;94110.09;6212581;23;20016;-88
2023/02/10 10:58:20;;;;;;;12.07;6.15;;;;;;;4.88;38.16;94103.69;6211868;23;20009;-88
2023/02/10 11:00:52;;;;;;;11.95;6.45;;;;;;;4.86;37.93;94109.06;6211698;23;20005;-88
2023/02/10 11:03:18;;;;;;;17.60;7.72;;;;;;;5.28;37.34;94113.75;6211894;23;20005;-89
2023/02/10 11:05:58;;;;;;;16.65;8.55;;;;;;;5.22;36.41;94098.03;6186975;23;20063;-88
2023/02/10 11:08:28;;;;;;;13.68;5.80;;;;;;;5.68;35.32;94097.78;6213635;23;20047;-89
2023/02/10 11:10:57;;;;;;;9.88;5.47;;;;;;;5.21;35.30;94096.41;6232225;22;20035;-90
2023/02/10 11:13:27;;;;;;;12.60;7.45;;;;;;;5.26;34.73;94103.56;6226875;23;20003;-89
2023/02/10 11:16:15;;;;;;;15.70;8.45;;;;;;;5.48;34.06;94096.19;6228035;23;20024;-88
2023/02/10 11:19:13;;;;;;;14.05;7.68;;;;;;;5.26;33.57;94113.16;6228357;23;20032;-89
2023/02/10 11:21:40;;;;;;;9.00;4.50;;;;;;;5.28;33.68;94111.16;6211232;23;20016;-88
2023/02/10 11:24:35;;;;;;;13.45;6.75;;;;;;;5.36;33.11;94108.28;6212003;23;20000;-88
2023/02/10 11:27:02;;;;;;;15.07;6.15;;;;;;;5.56;33.94;94093.31;6167777;23;20066;-89
2023/02/10 11:29:44;;;;;;;14.15;7.57;;;;;;;5.21;33.79;94090.44;6212835;23;20005;-88
2023/02/10 11:32:33;;;;;;;15.30;7.93;;;;;;;5.56;33.15;94106.31;6186881;23;20012;-88
2023/02/10 11:35:02;;;;;;;15.05;6.90;;;;;;;5.84;33.12;94100.59;6186879;23;20016;-89
2023/02/10 11:37:32;;;;;;;12.98;6.63;;;;;;;5.60;34.04;94104.03;6186745;23;20007;-88
2023/02/10 11:40:01;;;;;;;12.65;7.15;;;;;;;5.80;33.68;94109.03;6161627;23;20024;-89
2023/02/10 11:42:30;;;;;;;16.33;8.60;;;;;;;5.49;33.86;94104.75;6186508;23;20087;-88
2023/02/10 11:44:55;;;;;;;20.00;7.80;;;;;;;5.52;34.73;94105.13;6214139;23;20020;-88
2023/02/10 11:47:21;;;;;;;13.05;7.43;;;;;;;5.09;34.65;94072.16;6186668;23;20005;-87